Vieux-Fort の空港の天気 - METARとTAF

ヘウノラ国際空港 ( TLPL / UVF ) - セントルシア Vieux-Fort
飛行場実況気象(Metar)
観測時間07/12 17:00 AST (07/12 21:00 UTC)
風向・風速東南東 5m/s
視程10km以上
天気現象弱いしゅう雨
全天の8割程度の雲 雲底高度 550m
気温28℃
湿度89%
気圧1014hPa
METARTLPL 122100Z 11010KT 9999 -SHRA BKN018 28/26 Q1014 NOSIG
過去の天気等 Google飛行場航空写真 Wunderground天気予報

過去48時間のMETAR

飛行場予報(TAF)
発表時間: 7/12 13:00 AST (7/12 17:00 UTC)
予報対象時間: 12日14時 AST ~ 13日14時 AST
風向・風速東 9m/s
視程10km以上
全天の4割程度の雲 雲底高度 730m
12日14時 AST ~ 13日2時 AST に一時的に
視程5000m
天気現象しゅう雨
全天の8割程度の雲 雲底高度 460m
全天の8割程度の雲 雲底高度 910m
TAF TLPL 121700Z 1218/1318 09018KT 9999 SCT024
TEMPO 1218/1306 5000 SHRA BKN015 BKN030